Guysie, Georgia
Current Conditions -  °F | °C
As of 3:49 AM on Sunday 23 Nov 2014 (Local Time) from KAMG Reporting Station
Moderate Rain Moderate Rain  
Wind Chill: 61°   Ceiling: 900
Heat Index: 61°   Visibility: 2.5mi
Dew Point: 57°   Wind: 7mph
Humidity: 88%   Direction: NA
Pressure: 30.05"   Gusts: NA
Location:  31.5537°N, 82.4528°W
Report Text: KAMG 230849Z AUTO VRB06KT 2 1/2SM RA BR SCT005 BKN009 OVC027 16/14 A3005 RMK AO2 P0015
Loading
Personal Weather Stations






























Interactive Weather Map New forecast layout! Learn more

10-Day Weather Forecast

Advertisements
Track Severe Weather on mobile